Time;durP1;ratioP1;P1;durP2;ratioP2;P2;SDS_P1;SDS_P2;PMS_P1;PMS_P2;Temp;Humidity;BMP_temperature;BMP_pressure;BME280_temperature;BME280_humidity;BME280_pressure;Samples;Min_cycle;Max_cycle;Signal;HPM_P1;HPM_P2
2023/06/30 00:08:14;;;;;;;4.65;1.88;;;19.10;95.00;;;;;;5844150;23;20522;-89
2023/06/30 00:42:25;;;;;;;;;;;;;;;;;;;;;
2023/06/30 02:27:23;;;;;;;5.85;2.53;;;17.40;95.50;;;;;;506815;27;20313;-86
2023/06/30 02:30:20;;;;;;;7.63;2.70;;;17.40;95.60;;;;;;4866179;29;20090;-89
2023/06/30 02:32:58;;;;;;;6.80;2.80;;;17.30;95.70;;;;;;4839391;29;20036;-88
2023/06/30 02:35:36;;;;;;;5.35;2.70;;;17.30;95.70;;;;;;4852467;29;20039;-93
2023/06/30 02:38:23;;;;;;;5.07;2.78;;;17.20;95.80;;;;;;5440954;23;20020;-93
2023/06/30 02:46:17;;;;;;;6.13;2.88;;;17.00;95.90;;;;;;5505444;23;20038;-87
2023/06/30 02:54:35;;;;;;;5.82;2.50;;;16.90;96.00;;;;;;5379999;23;20041;-92
2023/06/30 02:57:26;;;;;;;8.02;2.67;;;16.80;96.00;;;;;;5425409;23;20114;-93
2023/06/30 03:00:23;;;;;;;7.45;2.75;;;16.80;96.00;;;;;;5027050;24;20040;-96
2023/06/30 03:03:07;;;;;;;6.03;2.35;;;16.80;96.00;;;;;;4903906;29;20033;-96
2023/06/30 03:14:04;;;;;;;8.50;2.50;;;16.60;96.00;;;;;;5826106;23;20054;-91
2023/06/30 03:31:52;;;;;;;5.65;2.55;;;16.40;96.20;;;;;;5908716;23;20238;31
2023/06/30 03:40:05;;;;;;;;;;;;;;;;;;;;;
2023/06/30 03:56:36;;;;;;;;;;;;;;;;;;;;;
2023/06/30 03:59:31;;;;;;;6.03;2.58;;;16.00;96.40;;;;;;5267368;23;20077;-96
2023/06/30 04:15:35;;;;;;;4.65;2.38;;;15.90;96.60;;;;;;4546406;23;20101;-95
2023/06/30 04:30:07;;;;;;;4.80;2.42;;;15.90;96.80;;;;;;753785;23;20232;-86
2023/06/30 04:32:51;;;;;;;;;;;;;;;;;;;;;
2023/06/30 04:35:35;;;;;;;7.85;2.90;;;15.90;96.90;;;;;;4853068;29;20033;-89
2023/06/30 04:38:31;;;;;;;;;;;;;;;;;;;;;
2023/06/30 04:47:57;;;;;;;6.30;2.90;;;16.00;97.10;;;;;;5249780;24;20062;-89
2023/06/30 04:53:59;;;;;;;6.13;2.85;;;16.00;97.10;;;;;;3105781;23;20341;-86
2023/06/30 05:00:01;;;;;;;5.60;2.92;;;16.10;97.20;;;;;;5095781;23;20479;-86
2023/06/30 05:05:48;;;;;;;4.45;2.40;;;16.20;97.30;;;;;;5041538;23;20053;-85
2023/06/30 05:08:52;;;;;;;5.43;2.60;;;16.20;97.20;;;;;;1279708;23;20228;-87
2023/06/30 05:18:23;;;;;;;6.15;2.30;;;16.30;97.30;;;;;;3803517;23;20233;-83
2023/06/30 05:42:15;;;;;;;4.65;1.88;;;16.80;96.80;;;;;;4973348;23;20245;-90
2023/06/30 05:44:56;;;;;;;4.78;2.03;;;16.90;96.70;;;;;;5574062;23;20019;-89
2023/06/30 05:50:26;;;;;;;3.10;1.70;;;16.90;96.60;;;;;;5403048;23;20045;-87
2023/06/30 05:53:33;;;;;;;3.38;1.45;;;17.00;96.50;;;;;;4856717;29;20025;-88
2023/06/30 05:56:21;;;;;;;;;;;;;;;;;;;;;
2023/06/30 05:59:19;;;;;;;7.70;2.20;;;17.10;96.40;;;;;;4876014;29;20029;-88
2023/06/30 06:01:58;;;;;;;3.63;1.70;;;17.10;96.40;;;;;;4865563;29;20051;-87
2023/06/30 06:04:40;;;;;;;5.55;1.83;;;17.10;96.10;;;;;;4855761;29;20034;-88
2023/06/30 06:07:40;;;;;;;3.90;1.42;;;17.10;96.10;;;;;;4854143;29;20029;-87
2023/06/30 06:12:46;;;;;;;2.75;1.52;;;17.20;96.00;;;;;;4887926;29;19915;-88
2023/06/30 06:15:40;;;;;;;3.20;1.45;;;17.30;96.00;;;;;;4857830;29;20017;-88
2023/06/30 06:21:36;;;;;;;;;;;;;;;;;;;;;
2023/06/30 06:24:17;;;;;;;;;;;;;;;;;;;;;
2023/06/30 06:52:43;;;;;;;;;;;;;;;;;;;;;
2023/06/30 07:50:48;;;;;;;2.75;1.10;;;19.40;92.10;;;;;;5901578;23;20171;31
2023/06/30 08:08:43;;;;;;;2.42;1.10;;;19.60;90.40;;;;;;5887195;23;20020;-83
2023/06/30 08:13:52;;;;;;;1.98;0.82;;;19.80;90.60;;;;;;5560877;23;20052;-89
2023/06/30 08:21:46;;;;;;;1.52;0.98;;;20.00;90.80;;;;;;5104685;23;20230;-91
2023/06/30 08:24:16;;;;;;;3.30;1.02;;;20.10;90.70;;;;;;4886529;29;20053;-95
2023/06/30 08:27:08;;;;;;;2.85;1.00;;;20.20;90.70;;;;;;4872138;29;20033;-96
2023/06/30 08:29:38;;;;;;;2.38;1.30;;;20.30;90.40;;;;;;4945863;24;20041;-95
2023/06/30 08:32:09;;;;;;;2.42;1.00;;;20.30;90.20;;;;;;4866152;29;20063;-95
2023/06/30 08:34:37;;;;;;;3.33;1.27;;;20.30;90.10;;;;;;4865237;29;20022;-93
2023/06/30 08:37:27;;;;;;;2.53;1.00;;;20.40;89.90;;;;;;4849228;29;20022;-95
2023/06/30 08:39:57;;;;;;;3.35;1.25;;;20.40;89.00;;;;;;4851399;29;20026;-90
2023/06/30 08:45:22;;;;;;;5.10;1.10;;;20.40;87.70;;;;;;5364841;23;20039;-88
2023/06/30 08:48:10;;;;;;;;;;;;;;;;;;;;;
2023/06/30 08:50:58;;;;;;;;;;;;;;;;;;;;;
2023/06/30 08:53:35;;;;;;;3.28;0.93;;;20.70;88.30;;;;;;5255489;23;20052;-93
2023/06/30 08:56:08;;;;;;;2.28;0.90;;;20.70;88.00;;;;;;3368709;23;20060;-93
2023/06/30 08:58:37;;;;;;;2.63;1.10;;;20.80;87.90;;;;;;4882441;29;20057;-95
2023/06/30 09:01:09;;;;;;;1.85;1.00;;;20.80;87.10;;;;;;4866123;29;20038;-94
2023/06/30 09:07:25;;;;;;;2.45;1.08;;;21.00;86.70;;;;;;832812;23;20266;-86
2023/06/30 09:10:09;;;;;;;2.22;1.05;;;21.00;86.50;;;;;;4949229;23;20057;-95
2023/06/30 09:12:35;;;;;;;2.58;0.90;;;21.10;86.80;;;;;;4884900;29;20060;-96
2023/06/30 09:15:02;;;;;;;1.58;0.90;;;21.20;86.50;;;;;;4884846;29;20034;-91
2023/06/30 09:17:34;;;;;;;1.95;0.93;;;21.20;86.30;;;;;;4886585;29;20033;-94
2023/06/30 09:20:00;;;;;;;2.35;0.98;;;21.30;86.10;;;;;;4875235;29;20029;-91
2023/06/30 09:22:28;;;;;;;3.92;1.23;;;21.40;86.30;;;;;;4916775;24;20098;-95
2023/06/30 09:25:02;;;;;;;2.15;0.90;;;21.40;85.70;;;;;;4884469;29;20024;-94
2023/06/30 09:27:53;;;;;;;;;;;;;;;;;;;;;
2023/06/30 09:30:43;;;;;;;3.30;1.25;;;21.60;85.60;;;;;;4985260;23;20110;-96
2023/06/30 09:33:25;;;;;;;4.50;1.20;;;21.70;84.80;;;;;;4867111;29;20032;-95
2023/06/30 09:36:37;;;;;;;4.38;1.30;;;21.70;85.30;;;;;;4927256;23;20061;-95
2023/06/30 09:39:08;;;;;;;1.58;0.93;;;21.80;84.60;;;;;;4972451;23;20054;-90
2023/06/30 09:41:53;;;;;;;;;;;;;;;;;;;;;
2023/06/30 09:44:44;;;;;;;1.67;1.00;;;21.90;84.20;;;;;;4861293;29;20056;-96
2023/06/30 09:47:12;;;;;;;;;;;21.90;84.30;;;;;;4860981;29;20049;-96
2023/06/30 09:49:39;;;;;;;1.75;0.60;;;22.00;84.60;;;;;;4860911;29;19915;-96
2023/06/30 09:52:26;;;;;;;1.27;0.88;;;22.10;84.50;;;;;;4854253;29;20019;-95
2023/06/30 09:55:02;;;;;;;3.47;1.30;;;22.10;84.40;;;;;;4841019;29;20045;-96
2023/06/30 09:57:29;;;;;;;3.28;1.25;;;22.10;84.10;;;;;;4821970;29;20089;-95
2023/06/30 10:00:39;;;;;;;2.72;1.15;;;22.20;83.40;;;;;;4843891;29;20030;-96
2023/06/30 10:03:06;;;;;;;4.30;1.20;;;22.20;83.00;;;;;;4993716;24;21074;-95
2023/06/30 10:05:57;;;;;;;1.98;1.10;;;22.20;83.30;;;;;;4876506;29;20033;-96
2023/06/30 10:09:03;;;;;;;;;;;;;;;;;;;;;
2023/06/30 10:14:59;;;;;;;;;;;;;;;;;;;;;
2023/06/30 10:17:37;;;;;;;;;;;;;;;;;;;;;
2023/06/30 10:20:40;;;;;;;2.45;1.15;;;22.40;83.00;;;;;;4883381;29;20065;-91
2023/06/30 10:26:48;;;;;;;2.63;1.10;;;22.50;82.70;;;;;;4847986;29;20033;-93
2023/06/30 10:29:32;;;;;;;4.82;1.50;;;22.50;82.40;;;;;;4924217;24;20022;-95
2023/06/30 10:32:10;;;;;;;;;;;;;;;;;;;;;
2023/06/30 10:34:54;;;;;;;3.03;1.30;;;22.60;82.10;;;;;;4867207;29;20093;-94
2023/06/30 10:37:27;;;;;;;1.77;0.98;;;22.60;81.60;;;;;;4854479;29;20033;-94
2023/06/30 10:39:56;;;;;;;3.78;1.00;;;22.70;81.60;;;;;;4850648;29;20034;-93
2023/06/30 10:42:29;;;;;;;2.28;1.40;;;22.70;81.00;;;;;;4845448;29;20034;-93
2023/06/30 10:45:07;;;;;;;2.05;1.30;;;22.70;80.80;;;;;;4829738;29;20428;-95
2023/06/30 10:47:40;;;;;;;2.83;1.08;;;22.70;80.70;;;;;;4844514;29;20029;-94
2023/06/30 10:50:24;;;;;;;4.45;1.30;;;22.70;80.50;;;;;;4829638;29;20446;-95
2023/06/30 10:53:08;;;;;;;3.92;1.60;;;22.70;80.40;;;;;;4830627;29;20068;-95
2023/06/30 10:55:42;;;;;;;4.30;1.33;;;22.70;80.50;;;;;;4830452;29;20144;-96
2023/06/30 10:58:27;;;;;;;3.58;1.27;;;22.70;80.80;;;;;;4829516;29;20563;-94
2023/06/30 11:01:26;;;;;;;2.55;1.30;;;22.80;81.00;;;;;;4848373;29;20026;-96
2023/06/30 11:04:00;;;;;;;2.70;1.33;;;22.80;80.80;;;;;;4863870;29;20033;-93
2023/06/30 11:06:57;;;;;;;;;;;;;;;;;;;;;
2023/06/30 11:09:44;;;;;;;3.80;1.30;;;22.80;80.70;;;;;;4851394;29;20539;-94
2023/06/30 11:13:12;;;;;;;3.22;1.00;;;22.80;80.80;;;;;;4864817;29;20033;-95
2023/06/30 11:16:09;;;;;;;;;;;;;;;;;;;;;
2023/06/30 11:19:27;;;;;;;3.00;1.30;;;22.90;80.20;;;;;;4865525;29;20072;-96
2023/06/30 11:22:25;;;;;;;2.25;1.35;;;22.90;80.30;;;;;;4861067;29;20057;-95
2023/06/30 11:25:12;;;;;;;;;;;;;;;;;;;;;
2023/06/30 11:27:45;;;;;;;2.75;1.70;;;23.00;79.50;;;;;;4844958;29;20026;-95
2023/06/30 11:30:32;;;;;;;2.28;1.20;;;23.00;79.50;;;;;;4825616;29;20069;-94
2023/06/30 11:33:00;;;;;;;2.35;1.40;;;23.00;79.10;;;;;;4825858;29;20113;-94
2023/06/30 11:35:31;;;;;;;4.45;1.48;;;23.00;78.80;;;;;;4840769;29;20039;-93
2023/06/30 11:38:00;;;;;;;2.28;1.33;;;23.00;78.70;;;;;;4857162;29;20116;-96
2023/06/30 11:40:28;;;;;;;3.17;1.38;;;23.00;79.20;;;;;;4848647;29;20042;-96
2023/06/30 11:42:56;;;;;;;1.50;1.20;;;23.10;79.70;;;;;;4842975;29;20026;-95
2023/06/30 11:45:27;;;;;;;1.80;1.02;;;23.20;79.70;;;;;;4844645;29;20046;-96
2023/06/30 11:48:06;;;;;;;2.72;1.48;;;23.20;79.80;;;;;;4845757;29;20034;-96
2023/06/30 11:50:34;;;;;;;1.52;1.20;;;23.30;80.00;;;;;;4845610;29;20034;-93
2023/06/30 11:53:05;;;;;;;3.55;1.33;;;23.30;80.20;;;;;;4844015;29;20037;-95
2023/06/30 11:55:46;;;;;;;2.90;1.42;;;23.30;79.80;;;;;;4843726;29;20073;-92
2023/06/30 11:58:29;;;;;;;;;;;;;;;;;;;;;
2023/06/30 12:00:58;;;;;;;4.40;1.60;;;23.30;79.40;;;;;;4833591;29;20407;-96
2023/06/30 12:03:27;;;;;;;2.95;1.30;;;23.30;79.30;;;;;;4835664;29;20034;-96
2023/06/30 12:06:01;;;;;;;2.40;1.27;;;23.30;79.50;;;;;;4828498;29;20037;-96
2023/06/30 12:08:49;;;;;;;2.63;1.33;;;23.30;78.90;;;;;;4845464;29;20030;-96
2023/06/30 12:11:26;;;;;;;2.58;1.50;;;23.40;79.30;;;;;;4855811;29;20049;-95
2023/06/30 12:14:09;;;;;;;1.60;1.20;;;23.40;79.00;;;;;;4851278;29;20014;-95
2023/06/30 12:16:53;;;;;;;;;;;;;;;;;;;;;
2023/06/30 12:19:41;;;;;;;;;;;;;;;;;;;;;
2023/06/30 12:22:27;;;;;;;2.55;1.20;;;23.50;77.90;;;;;;4877666;29;20030;-93
2023/06/30 12:27:54;;;;;;;2.53;1.50;;;23.60;78.70;;;;;;4861906;29;20030;-96
2023/06/30 12:30:38;;;;;;;3.55;1.38;;;23.50;78.70;;;;;;4864731;29;20073;-96
2023/06/30 12:36:09;;;;;;;2.60;1.20;;;23.60;78.60;;;;;;4826661;29;20053;-96
2023/06/30 12:38:42;;;;;;;1.70;1.20;;;23.60;78.30;;;;;;4856642;29;20056;-96
2023/06/30 12:41:25;;;;;;;;;;;;;;;;;;;;;
2023/06/30 12:47:12;;;;;;;1.70;1.30;;;23.80;78.30;;;;;;4874589;29;20034;-95
2023/06/30 12:49:42;;;;;;;2.00;1.25;;;23.80;78.40;;;;;;4866181;29;20033;-94
2023/06/30 12:52:23;;;;;;;;;;;23.90;78.20;;;;;;4859753;29;20040;-95
2023/06/30 12:55:28;;;;;;;;;;;;;;;;;;;;;
2023/06/30 12:58:26;;;;;;;3.38;1.42;;;23.90;77.90;;;;;;4834992;29;20046;-93
2023/06/30 13:01:18;;;;;;;1.67;1.20;;;24.00;78.10;;;;;;4845770;29;20049;-94
2023/06/30 13:03:57;;;;;;;2.85;1.30;;;24.00;77.60;;;;;;4855354;29;20033;-92
2023/06/30 13:10:01;;;;;;;2.17;1.20;;;24.10;77.10;;;;;;4865521;29;20036;-92
2023/06/30 13:15:57;;;;;;;2.70;1.50;;;24.10;76.90;;;;;;4865011;29;20066;-95
2023/06/30 13:18:52;;;;;;;1.98;1.40;;;24.10;76.60;;;;;;4866687;29;20045;-94
2023/06/30 13:21:46;;;;;;;2.47;1.42;;;24.10;76.60;;;;;;4880994;29;20041;-96
2023/06/30 13:24:47;;;;;;;;;;;;;;;;;;;;;
2023/06/30 13:27:29;;;;;;;2.65;1.20;;;24.00;76.70;;;;;;4857923;29;20122;-95
2023/06/30 13:35:40;;;;;;;3.22;1.42;;;24.10;76.20;;;;;;4837344;29;20061;-92
2023/06/30 13:38:52;;;;;;;1.92;1.40;;;24.20;75.60;;;;;;4814384;29;20038;-90
2023/06/30 13:41:50;;;;;;;1.88;1.20;;;24.20;75.50;;;;;;4814075;29;20042;-95
2023/06/30 13:45:06;;;;;;;;;;;;;;;;;;;;;
2023/06/30 13:48:06;;;;;;;2.28;1.50;;;24.30;75.30;;;;;;4824784;29;20050;-96
2023/06/30 13:50:53;;;;;;;2.35;1.50;;;24.30;75.50;;;;;;4830805;29;20035;-92
2023/06/30 13:53:19;;;;;;;3.10;1.65;;;24.40;75.50;;;;;;4831522;29;20042;-92
2023/06/30 13:56:01;;;;;;;;;;;;;;;;;;;;;
2023/06/30 13:58:30;;;;;;;3.33;1.60;;;24.50;75.70;;;;;;4815385;29;20039;-92
2023/06/30 14:00:56;;;;;;;3.25;1.70;;;24.50;75.80;;;;;;4827832;29;20051;-91
2023/06/30 14:03:40;;;;;;;2.97;1.33;;;24.50;75.90;;;;;;4815658;29;20030;-94
2023/06/30 14:06:10;;;;;;;3.58;1.55;;;24.60;75.10;;;;;;4830159;29;20043;-94
2023/06/30 14:08:37;;;;;;;2.03;1.48;;;24.60;75.30;;;;;;4786788;29;20085;-92
2023/06/30 14:11:03;;;;;;;2.17;1.45;;;24.60;75.40;;;;;;4800059;29;20035;-96
2023/06/30 14:13:32;;;;;;;3.55;1.38;;;24.70;75.30;;;;;;4826910;29;20030;-95
2023/06/30 14:16:00;;;;;;;2.45;1.50;;;24.70;75.20;;;;;;4829547;29;20041;-96
2023/06/30 14:18:33;;;;;;;3.70;1.60;;;24.70;75.10;;;;;;4844652;29;20042;-96
2023/06/30 14:21:01;;;;;;;3.38;1.60;;;24.70;75.40;;;;;;4836167;29;20071;-96
2023/06/30 14:23:39;;;;;;;3.33;1.58;;;24.70;75.30;;;;;;4820669;29;20034;-95
2023/06/30 14:26:05;;;;;;;2.45;1.60;;;24.70;75.20;;;;;;4814187;29;20030;-93
2023/06/30 14:28:31;;;;;;;3.13;1.50;;;24.70;74.90;;;;;;4844278;29;20090;-91
2023/06/30 14:30:57;;;;;;;5.38;1.60;;;24.70;75.00;;;;;;4848141;29;20038;-92
2023/06/30 14:33:23;;;;;;;2.50;1.70;;;24.70;75.20;;;;;;4847803;29;20050;-92
2023/06/30 14:35:58;;;;;;;2.92;1.42;;;24.70;74.90;;;;;;4829411;29;20034;-95
2023/06/30 14:38:26;;;;;;;2.20;1.48;;;24.70;74.90;;;;;;4829777;29;20034;-92
2023/06/30 14:40:52;;;;;;;2.50;1.80;;;24.70;75.00;;;;;;4845252;29;20527;-93
2023/06/30 14:43:18;;;;;;;3.38;1.70;;;24.70;74.80;;;;;;4825833;29;20054;-94
2023/06/30 14:45:49;;;;;;;3.05;1.80;;;24.70;74.70;;;;;;4828086;29;20035;-96
2023/06/30 14:48:16;;;;;;;3.45;1.55;;;24.70;74.60;;;;;;4801270;29;20062;-91
2023/06/30 14:50:47;;;;;;;3.67;1.92;;;24.60;74.60;;;;;;4792972;29;20034;-93
2023/06/30 14:53:33;;;;;;;2.47;1.63;;;24.70;74.60;;;;;;4795750;29;20071;-94
2023/06/30 14:56:08;;;;;;;1.98;1.50;;;24.60;74.40;;;;;;4844636;29;20030;-95
2023/06/30 14:58:36;;;;;;;5.35;1.77;;;24.60;74.60;;;;;;4846293;29;20109;-95
2023/06/30 15:01:02;;;;;;;2.45;1.55;;;24.60;74.80;;;;;;4829841;29;20576;-96
2023/06/30 15:07:04;;;;;;;6.72;2.17;;;24.70;75.00;;;;;;4804501;29;20038;-93
2023/06/30 15:09:50;;;;;;;3.83;2.38;;;24.70;74.70;;;;;;4821618;29;20044;-95
2023/06/30 15:12:41;;;;;;;2.40;1.70;;;24.70;74.80;;;;;;4805158;29;20102;-96
2023/06/30 15:15:19;;;;;;;3.88;2.10;;;24.70;74.90;;;;;;4808784;29;20037;-96
2023/06/30 15:17:53;;;;;;;4.00;2.08;;;24.70;74.70;;;;;;4817472;29;20042;-96
2023/06/30 15:20:19;;;;;;;3.25;2.03;;;24.70;74.90;;;;;;4832526;29;20061;-95
2023/06/30 15:22:54;;;;;;;3.00;2.45;;;24.80;74.90;;;;;;4815855;29;20031;-94
2023/06/30 15:25:45;;;;;;;3.50;2.13;;;24.80;74.60;;;;;;4847365;29;20030;-96
2023/06/30 15:28:14;;;;;;;2.25;1.90;;;24.80;74.60;;;;;;4819286;29;20041;-95
2023/06/30 15:30:47;;;;;;;3.78;2.30;;;24.80;74.60;;;;;;4847889;29;20041;-94
2023/06/30 15:33:51;;;;;;;;;;;;;;;;;;;;;
2023/06/30 15:36:21;;;;;;;2.70;2.00;;;24.70;73.70;;;;;;4815805;29;20461;-95
2023/06/30 15:38:55;;;;;;;2.92;1.90;;;24.70;73.90;;;;;;4800255;29;20043;-93
2023/06/30 15:41:54;;;;;;;4.45;2.10;;;24.70;73.90;;;;;;4804284;29;20058;-95
2023/06/30 15:44:21;;;;;;;3.38;1.60;;;24.70;74.20;;;;;;4797320;29;20040;-95
2023/06/30 15:46:57;;;;;;;2.60;1.75;;;24.70;74.30;;;;;;4820023;29;20068;-94
2023/06/30 15:49:33;;;;;;;3.17;1.83;;;24.80;73.80;;;;;;4814846;29;20473;-93
2023/06/30 15:52:06;;;;;;;2.78;1.70;;;24.80;73.60;;;;;;4829107;29;20030;-96
2023/06/30 15:54:43;;;;;;;1.70;1.30;;;24.80;73.50;;;;;;4799786;29;20026;-96
2023/06/30 15:57:36;;;;;;;2.95;1.75;;;24.80;73.40;;;;;;4813247;29;20022;-96
2023/06/30 16:00:23;;;;;;;2.10;1.60;;;24.80;72.90;;;;;;4810601;29;20047;-96
2023/06/30 16:02:59;;;;;;;1.70;1.60;;;24.80;72.70;;;;;;4825889;29;20489;-94
2023/06/30 16:05:27;;;;;;;3.55;1.65;;;24.70;72.70;;;;;;4810318;29;20029;-94
2023/06/30 16:08:00;;;;;;;3.78;1.60;;;24.70;72.80;;;;;;4809639;29;20034;-96
2023/06/30 16:10:31;;;;;;;4.03;1.42;;;24.70;73.10;;;;;;4826708;29;20144;-94
2023/06/30 16:13:02;;;;;;;3.38;1.85;;;24.60;73.40;;;;;;4819067;29;20042;-96
2023/06/30 16:15:32;;;;;;;2.67;1.77;;;24.60;74.00;;;;;;4826707;29;20037;-95
2023/06/30 16:18:00;;;;;;;2.60;1.65;;;24.60;73.40;;;;;;4823980;29;20030;-96
2023/06/30 16:23:16;;;;;;;3.20;1.45;;;24.60;73.30;;;;;;4849800;29;20033;-95
2023/06/30 16:25:47;;;;;;;2.38;1.42;;;24.60;73.30;;;;;;4839439;29;20151;-93
2023/06/30 16:28:22;;;;;;;;;;;;;;;;;;;;;
2023/06/30 16:30:51;;;;;;;4.50;1.50;;;24.60;73.10;;;;;;4859788;29;19943;-95
2023/06/30 16:34:03;;;;;;;2.55;1.30;;;24.60;73.10;;;;;;4851001;29;20066;-96
2023/06/30 16:36:30;;;;;;;3.40;1.58;;;24.60;72.80;;;;;;4811412;29;20050;-96
2023/06/30 16:39:04;;;;;;;3.00;1.60;;;24.60;72.80;;;;;;4809988;29;20090;-96
2023/06/30 16:41:30;;;;;;;2.83;1.35;;;24.60;72.50;;;;;;4825800;29;20065;-96
2023/06/30 16:47:20;;;;;;;2.63;1.30;;;24.60;72.30;;;;;;4837990;29;20093;-96
2023/06/30 16:50:12;;;;;;;3.92;1.50;;;24.50;72.70;;;;;;4861049;29;20018;-96
2023/06/30 16:53:28;;;;;;;2.67;1.50;;;24.60;73.00;;;;;;4834409;29;20034;-96
2023/06/30 16:55:57;;;;;;;3.95;1.65;;;24.60;72.80;;;;;;4822828;29;20106;-96
2023/06/30 17:00:58;;;;;;;2.15;1.40;;;24.50;72.70;;;;;;4893986;24;19924;-93
2023/06/30 17:06:27;;;;;;;2.57;1.40;;;24.50;72.20;;;;;;5393994;23;20065;-96
2023/06/30 17:09:07;;;;;;;6.95;1.35;;;24.40;72.20;;;;;;4825131;29;20294;-96
2023/06/30 17:11:38;;;;;;;5.47;1.63;;;24.40;72.50;;;;;;4829512;29;20033;-95
2023/06/30 17:14:07;;;;;;;4.03;1.45;;;24.30;72.60;;;;;;4813529;29;20039;-96
2023/06/30 17:16:46;;;;;;;;;;;;;;;;;;;;;
2023/06/30 17:22:02;;;;;;;4.57;2.00;;;24.30;72.60;;;;;;4848704;29;20038;-95
2023/06/30 17:24:33;;;;;;;2.17;1.50;;;24.20;72.60;;;;;;4832000;29;20034;-95
2023/06/30 17:27:12;;;;;;;2.58;1.55;;;24.20;72.50;;;;;;4847480;29;20026;-94
2023/06/30 17:32:43;;;;;;;2.78;1.40;;;24.10;72.60;;;;;;4772436;29;20040;-93
2023/06/30 17:35:09;;;;;;;2.42;1.25;;;24.10;72.90;;;;;;4831039;29;20041;-96
2023/06/30 17:37:44;;;;;;;1.85;1.23;;;24.00;72.90;;;;;;4832666;29;20033;-96
2023/06/30 17:40:10;;;;;;;2.83;1.50;;;24.00;73.00;;;;;;4815691;29;20055;-93
2023/06/30 17:42:46;;;;;;;1.77;1.50;;;23.90;72.80;;;;;;4846105;29;20034;-96
2023/06/30 17:45:12;;;;;;;4.32;1.65;;;23.80;72.90;;;;;;4847696;29;20037;-94
2023/06/30 17:47:48;;;;;;;;;;;;;;;;;;;;;
2023/06/30 17:50:16;;;;;;;3.00;1.50;;;23.80;72.90;;;;;;4846487;29;20034;-91
2023/06/30 17:52:42;;;;;;;2.17;1.45;;;23.70;73.10;;;;;;4832022;29;20465;-95
2023/06/30 17:55:10;;;;;;;3.78;1.75;;;23.60;73.00;;;;;;4842696;29;20038;-96
2023/06/30 17:58:02;;;;;;;5.15;1.52;;;23.60;73.10;;;;;;4823919;29;20038;-96
2023/06/30 18:00:53;;;;;;;2.83;1.45;;;23.50;73.00;;;;;;4830315;29;20034;-96
2023/06/30 18:03:37;;;;;;;3.50;1.50;;;23.50;73.10;;;;;;4850576;29;20062;-96
2023/06/30 18:06:21;;;;;;;1.90;1.40;;;23.50;73.20;;;;;;4821786;29;20052;-96
2023/06/30 18:08:57;;;;;;;1.42;1.30;;;23.50;73.20;;;;;;4836145;29;20584;-96
2023/06/30 18:11:33;;;;;;;3.60;1.50;;;23.40;73.30;;;;;;4834334;29;20042;-95
2023/06/30 18:14:01;;;;;;;2.75;1.40;;;23.50;73.40;;;;;;4825852;29;20072;-94
2023/06/30 18:16:35;;;;;;;3.97;1.83;;;23.40;73.50;;;;;;4840071;29;20048;-96
2023/06/30 18:19:03;;;;;;;2.13;1.60;;;23.40;73.50;;;;;;4815006;29;20065;-93
2023/06/30 18:21:32;;;;;;;2.63;1.60;;;23.40;73.40;;;;;;4829273;29;20034;-95
2023/06/30 18:23:58;;;;;;;1.85;1.23;;;23.30;73.30;;;;;;4846322;29;20074;-95
2023/06/30 18:26:27;;;;;;;3.05;1.48;;;23.30;73.50;;;;;;4845470;29;20033;-94
2023/06/30 18:28:58;;;;;;;3.05;1.52;;;23.20;73.50;;;;;;4834911;29;20038;-96
2023/06/30 18:31:34;;;;;;;2.58;1.40;;;23.20;73.70;;;;;;4845971;29;20540;-93
2023/06/30 18:34:06;;;;;;;2.15;1.30;;;23.20;73.70;;;;;;4844427;29;20491;-93
2023/06/30 18:36:32;;;;;;;3.58;1.48;;;23.20;73.90;;;;;;4814904;29;20070;-92
2023/06/30 18:39:12;;;;;;;;;;;;;;;;;;;;;
2023/06/30 18:41:43;;;;;;;4.90;1.83;;;23.10;74.30;;;;;;4828659;29;20034;-96
2023/06/30 18:44:26;;;;;;;;;;;;;;;;;;;;;
2023/06/30 18:47:18;;;;;;;2.85;1.30;;;23.00;74.50;;;;;;4831745;29;20026;-92
2023/06/30 18:50:02;;;;;;;3.78;1.48;;;23.00;74.70;;;;;;4850592;29;20038;-92
2023/06/30 18:52:30;;;;;;;3.70;2.03;;;23.00;74.70;;;;;;4834981;29;20026;-93
2023/06/30 18:54:55;;;;;;;2.50;1.60;;;23.00;75.00;;;;;;4855823;29;20060;-96
2023/06/30 18:57:26;;;;;;;3.97;1.65;;;23.00;75.30;;;;;;4815950;29;20499;-94
2023/06/30 18:59:54;;;;;;;3.22;1.80;;;23.00;75.70;;;;;;4844019;29;20075;-94
2023/06/30 19:02:25;;;;;;;2.33;1.80;;;23.00;76.00;;;;;;4817266;29;20047;-95
2023/06/30 19:04:53;;;;;;;6.32;1.92;;;23.00;76.30;;;;;;4830545;29;20030;-96
2023/06/30 19:07:48;;;;;;;4.65;1.80;;;22.90;76.90;;;;;;4891132;29;20114;-92
2023/06/30 19:10:19;;;;;;;3.72;1.42;;;22.90;77.30;;;;;;4840848;29;20018;-96
2023/06/30 19:12:48;;;;;;;3.50;1.50;;;22.90;77.60;;;;;;4844204;29;20098;-96
2023/06/30 19:15:36;;;;;;;;;;;;;;;;;;;;;
2023/06/30 19:18:04;;;;;;;2.92;1.45;;;22.80;78.20;;;;;;4859415;29;20460;-95
2023/06/30 19:20:33;;;;;;;3.67;1.40;;;22.70;78.40;;;;;;4847296;29;20049;-95
2023/06/30 19:23:17;;;;;;;4.53;1.60;;;22.70;78.40;;;;;;4851130;29;20140;-96
2023/06/30 19:25:46;;;;;;;3.47;1.40;;;22.70;78.50;;;;;;4857683;29;20387;-94
2023/06/30 19:28:19;;;;;;;4.20;1.80;;;22.60;78.60;;;;;;4867874;29;20171;-96
2023/06/30 19:30:50;;;;;;;5.85;1.65;;;22.60;78.60;;;;;;4854733;29;20033;-95
2023/06/30 19:33:16;;;;;;;3.22;1.23;;;22.50;78.70;;;;;;4849437;29;20058;-95
2023/06/30 19:35:52;;;;;;;;;;;;;;;;;;;;;
2023/06/30 19:38:18;;;;;;;5.10;1.55;;;22.30;78.90;;;;;;4864017;29;20068;-95
2023/06/30 19:40:54;;;;;;;6.60;2.00;;;22.30;79.00;;;;;;4859903;29;20034;-95
2023/06/30 19:43:42;;;;;;;4.60;1.60;;;22.30;79.00;;;;;;4868408;29;20100;-96
2023/06/30 19:46:29;;;;;;;;;;;;;;;;;;;;;
2023/06/30 19:49:03;;;;;;;5.47;1.42;;;22.20;79.30;;;;;;4845777;29;20069;-96
2023/06/30 19:51:42;;;;;;;;;;;;;;;;;;;;;
2023/06/30 19:54:29;;;;;;;4.15;1.55;;;22.20;79.40;;;;;;4875863;29;20041;-92
2023/06/30 19:57:26;;;;;;;4.13;1.52;;;22.10;79.30;;;;;;4919042;24;20066;-96
2023/06/30 20:05:12;;;;;;;3.70;1.48;;;22.00;79.70;;;;;;4861967;29;20427;-95
2023/06/30 20:07:41;;;;;;;4.53;1.58;;;22.00;79.90;;;;;;4843944;29;20094;-96
2023/06/30 20:10:49;;;;;;;;;;;;;;;;;;;;;
2023/06/30 20:13:21;;;;;;;4.70;1.50;;;21.90;80.00;;;;;;4847786;29;20068;-96
2023/06/30 20:15:59;;;;;;;4.05;1.70;;;21.90;80.20;;;;;;4854797;29;20026;-96
2023/06/30 20:18:51;;;;;;;4.22;1.30;;;21.80;80.30;;;;;;4864376;29;20091;-96
2023/06/30 20:21:27;;;;;;;3.70;1.40;;;21.80;80.40;;;;;;4832050;29;20053;-96
2023/06/30 20:24:16;;;;;;;5.40;1.63;;;21.80;80.40;;;;;;4828464;29;20041;-96
2023/06/30 20:30:16;;;;;;;4.30;1.48;;;21.70;81.00;;;;;;4849896;29;20053;-96
2023/06/30 20:32:44;;;;;;;4.18;1.52;;;21.70;81.10;;;;;;4861515;29;20037;-96
2023/06/30 20:35:22;;;;;;;5.78;1.65;;;21.60;80.90;;;;;;4863203;29;20010;-95
2023/06/30 20:37:55;;;;;;;4.88;1.58;;;21.60;80.90;;;;;;4862308;29;20047;-96
2023/06/30 20:40:24;;;;;;;5.55;1.88;;;21.60;81.10;;;;;;4853717;24;20133;-95
2023/06/30 20:43:14;;;;;;;5.32;1.83;;;21.50;81.20;;;;;;4854434;29;20038;-96
2023/06/30 20:45:48;;;;;;;5.63;1.92;;;21.50;81.20;;;;;;4841621;29;20064;-95
2023/06/30 20:48:23;;;;;;;5.03;1.70;;;21.50;81.20;;;;;;4845547;29;20031;-89
2023/06/30 20:50:49;;;;;;;3.83;1.67;;;21.50;82.00;;;;;;4848014;29;20092;-95
2023/06/30 20:53:17;;;;;;;3.47;1.50;;;21.50;81.60;;;;;;4859657;29;20038;-94
2023/06/30 20:55:43;;;;;;;5.68;1.73;;;21.40;81.80;;;;;;4845091;29;20037;-95
2023/06/30 20:58:09;;;;;;;3.15;1.48;;;21.40;81.90;;;;;;4870392;29;20080;-95
2023/06/30 21:00:40;;;;;;;5.72;1.60;;;21.40;82.00;;;;;;4852899;29;20032;-95
2023/06/30 21:03:06;;;;;;;4.65;1.45;;;21.40;82.00;;;;;;4821783;29;20029;-96
2023/06/30 21:05:43;;;;;;;6.75;1.85;;;21.40;82.10;;;;;;4850725;29;20460;-95
2023/06/30 21:08:16;;;;;;;6.93;1.83;;;21.40;82.20;;;;;;4860565;29;20166;-96
2023/06/30 21:10:44;;;;;;;5.43;1.45;;;21.30;82.10;;;;;;4946385;23;20064;-94
2023/06/30 21:13:10;;;;;;;4.18;1.67;;;21.40;82.10;;;;;;4908424;29;20036;-94
2023/06/30 21:15:40;;;;;;;4.65;1.65;;;21.30;82.00;;;;;;4905705;29;20032;-96
2023/06/30 21:18:09;;;;;;;3.88;1.58;;;21.30;82.20;;;;;;4875307;29;20096;-96
2023/06/30 21:20:36;;;;;;;5.05;1.45;;;21.30;82.40;;;;;;4906320;29;20055;-96
2023/06/30 21:23:02;;;;;;;4.95;2.00;;;21.20;82.60;;;;;;4890672;29;20029;-96
2023/06/30 21:25:28;;;;;;;4.18;1.80;;;21.20;82.80;;;;;;4907270;29;20021;-96
2023/06/30 21:27:54;;;;;;;3.72;1.50;;;21.20;83.00;;;;;;4876890;29;20040;-96
2023/06/30 21:30:25;;;;;;;4.32;1.50;;;21.20;83.10;;;;;;4872530;29;20116;-95
2023/06/30 21:32:56;;;;;;;6.78;1.90;;;21.20;83.30;;;;;;4871865;29;20467;-96
2023/06/30 21:35:22;;;;;;;5.57;1.90;;;21.20;83.70;;;;;;4854882;29;20033;-95
2023/06/30 21:37:50;;;;;;;6.95;1.60;;;21.20;83.70;;;;;;4870315;29;20479;-96
2023/06/30 21:40:27;;;;;;;;;;;;;;;;;;;;;
2023/06/30 21:42:53;;;;;;;5.82;1.98;;;21.10;83.80;;;;;;4868933;29;20025;-96
2023/06/30 21:45:22;;;;;;;7.50;1.85;;;21.10;84.00;;;;;;4868387;29;20064;-92
2023/06/30 21:47:50;;;;;;;5.47;1.70;;;21.10;84.20;;;;;;4867272;29;20105;-96
2023/06/30 21:50:19;;;;;;;6.82;1.85;;;21.10;84.30;;;;;;4866852;29;20126;-96
2023/06/30 21:52:45;;;;;;;5.20;1.70;;;21.00;84.40;;;;;;4878298;29;20044;-96